Keewatin, Minnesota
Current Conditions -  °F | °C
As of 8:53 AM on Thursday 30 Oct 2014 (Local Time) from KHIB Reporting Station
Overcast Overcast  
Wind Chill: 31°   Ceiling: 1800
Heat Index: 36°   Visibility: 10mi
Dew Point: 31°   Wind: 6mph
Humidity: 82%   Direction: 340°NNW
Pressure: 30.07"   Gusts: NA
Location:  47.4°N, 93.07°W
Report Text: KHIB 301353Z AUTO 34005KT 10SM OVC018 02/M01 A3007 RMK AO2 SLP198 T00221006
Loading
Personal Weather Stations






























Interactive Weather Map
Tropical Storm Tracking
New forecast layout! Learn more

10-Day Weather Forecast

Advertisements
Track Severe Weather on mobile